Terminal Aerodrome Forecast
Issued by NWS

Home | Current Version | Previous Version | Text Only | Print | Product List | Glossary On
Versions: 1 2 3 4 5 6 7 8 9 10 11 12 13 14 15 16
000
FTUS45 KABQ 191100
TAFFMN
TAF
KFMN 191129Z 1912/2012 VRB03KT 6SM BR SCT005 BKN020
      TEMPO 1912/1914 VRB03KT 1SM BR BKN005
     FM191600 VRB05KT P6SM SKC
     FM192100 28009KT P6SM SCT250
     FM200200 04005KT P6SM SCT200=

USA.gov is the U.S. government's official web portal to all federal, state and local government web resources and services.